Terminal Aerodrome Forecast
Issued by NWS

Home | Current Version | Previous Version | Graphics & Text | Print | Product List | Glossary On
Versions: 1 2 3 4 5 6 7 8 9 10 11 12 13 14 15 16 17 18 19
000
FTUS42 KMHX 291024 AAD
TAFOAJ
TAF AMD
KOAJ 291024Z 2910/3006 VRB04KT P6SM SCT050
      TEMPO 2910/2912 1/4SM FG BKN002
      AMD LTD TO CLD VIS AND WIND=

USA.gov is the U.S. government's official web portal to all federal, state and local government web resources and services.